KAL905 RKPC-RKSS
Flight info
| Callsign | KAL905 |
|---|---|
| Flight time | 0h 46m |
| Altitude | 23000 |
| Route | KAMIT Y722 OLMEN |
| Aircraft | B38M/M-SDE1FGHILORVWXY/HB1 |
Departure
| Time | 2025-09-05 14:06 |
|---|---|
| Airport | Jeju International Airport (RKPC) |
Arrival
| Time | 2025-09-05 14:53 |
|---|---|
| Airport | Gimpo International Airport (RKSS) |
| Time | Latitude | Longitude | Altitude | Speed | Heading |
|---|---|---|---|---|---|
| 2025-09-05 13:49 | 33.50846 | 126.49088 | 96 ft | 0 kts | 326° |
| 2025-09-05 13:59 | 33.50891 | 126.49052 | 96 ft | 12 kts | 322° |
| 2025-09-05 14:00 | 33.50767 | 126.48734 | 96 ft | 13 kts | 236° |
| 2025-09-05 14:00 | 33.50657 | 126.48520 | 97 ft | 17 kts | 238° |
| 2025-09-05 14:01 | 33.50519 | 126.48251 | 97 ft | 20 kts | 239° |
| 2025-09-05 14:01 | 33.50361 | 126.47941 | 97 ft | 22 kts | 236° |
| 2025-09-05 14:02 | 33.50226 | 126.47681 | 97 ft | 17 kts | 239° |
| 2025-09-05 14:02 | 33.50162 | 126.47554 | 97 ft | 19 kts | 239° |
| 2025-09-05 14:02 | 33.50013 | 126.47267 | 97 ft | 21 kts | 239° |
| 2025-09-05 14:03 | 33.49880 | 126.46982 | 95 ft | 14 kts | 266° |
| 2025-09-05 14:04 | 33.50061 | 126.46978 | 95 ft | 13 kts | 58° |
| 2025-09-05 14:04 | 33.50694 | 126.48211 | 96 ft | 158 kts | 58° |
| 2025-09-05 14:04 | 33.51324 | 126.49447 | 461 ft | 185 kts | 60° |
| 2025-09-05 14:05 | 33.53896 | 126.53006 | 2366 ft | 213 kts | 44° |
| 2025-09-05 14:05 | 33.55065 | 126.54283 | 2686 ft | 242 kts | 44° |
| 2025-09-05 14:06 | 33.57740 | 126.57242 | 3704 ft | 275 kts | 44° |
| 2025-09-05 14:06 | 33.60572 | 126.60404 | 5381 ft | 282 kts | 44° |
| 2025-09-05 14:07 | 33.63468 | 126.63644 | 6903 ft | 291 kts | 42° |
| 2025-09-05 14:08 | 33.69269 | 126.65686 | 9072 ft | 301 kts | 8° |
| 2025-09-05 14:08 | 33.73635 | 126.66582 | 9796 ft | 336 kts | 8° |
| 2025-09-05 14:09 | 33.78420 | 126.67565 | 10604 ft | 356 kts | 8° |
| 2025-09-05 14:09 | 33.83357 | 126.68569 | 11840 ft | 364 kts | 8° |
| 2025-09-05 14:09 | 33.85833 | 126.69073 | 12481 ft | 367 kts | 8° |
| 2025-09-05 14:10 | 33.90924 | 126.70110 | 13808 ft | 375 kts | 7° |
| 2025-09-05 14:10 | 33.96116 | 126.71169 | 15048 ft | 382 kts | 7° |
| 2025-09-05 14:11 | 34.01404 | 126.72248 | 16254 ft | 388 kts | 8° |
| 2025-09-05 14:12 | 34.09506 | 126.73905 | 17779 ft | 403 kts | 8° |
| 2025-09-05 14:12 | 34.15093 | 126.75049 | 18697 ft | 410 kts | 8° |
| 2025-09-05 14:13 | 34.20715 | 126.76200 | 19535 ft | 416 kts | 8° |
| 2025-09-05 14:13 | 34.26476 | 126.77217 | 20331 ft | 421 kts | 3° |
| 2025-09-05 14:14 | 34.32358 | 126.77786 | 21105 ft | 427 kts | 4° |
| 2025-09-05 14:14 | 34.35320 | 126.78098 | 21483 ft | 430 kts | 4° |
| 2025-09-05 14:14 | 34.41316 | 126.78743 | 22224 ft | 435 kts | 5° |
| 2025-09-05 14:15 | 34.47390 | 126.79399 | 22895 ft | 441 kts | 5° |
| 2025-09-05 14:16 | 34.56755 | 126.80412 | 22967 ft | 463 kts | 4° |
| 2025-09-05 14:16 | 34.63253 | 126.81118 | 22965 ft | 475 kts | 4° |
| 2025-09-05 14:17 | 34.69908 | 126.81841 | 22978 ft | 484 kts | 4° |
| 2025-09-05 14:17 | 34.76658 | 126.82575 | 22975 ft | 491 kts | 4° |
| 2025-09-05 14:17 | 34.80076 | 126.82948 | 22966 ft | 493 kts | 4° |
| 2025-09-05 14:18 | 34.86853 | 126.83687 | 22969 ft | 493 kts | 4° |
| 2025-09-05 14:18 | 34.93742 | 126.84440 | 22984 ft | 493 kts | 4° |
| 2025-09-05 14:19 | 35.00527 | 126.85183 | 22969 ft | 493 kts | 4° |
| 2025-09-05 14:20 | 35.10787 | 126.86309 | 22971 ft | 493 kts | 4° |
| 2025-09-05 14:20 | 35.17620 | 126.87050 | 22972 ft | 493 kts | 4° |
| 2025-09-05 14:21 | 35.24451 | 126.87792 | 22969 ft | 492 kts | 4° |
| 2025-09-05 14:21 | 35.31226 | 126.88529 | 22974 ft | 492 kts | 4° |
| 2025-09-05 14:21 | 35.34639 | 126.88900 | 22967 ft | 492 kts | 4° |
| 2025-09-05 14:22 | 35.41451 | 126.89643 | 22969 ft | 492 kts | 4° |
| 2025-09-05 14:22 | 35.48269 | 126.90387 | 22967 ft | 492 kts | 4° |
| 2025-09-05 14:23 | 35.55047 | 126.91128 | 22969 ft | 492 kts | 4° |
| 2025-09-05 14:24 | 35.65277 | 126.92248 | 22963 ft | 492 kts | 4° |
| 2025-09-05 14:24 | 35.72092 | 126.92996 | 22958 ft | 492 kts | 4° |
| 2025-09-05 14:25 | 35.78911 | 126.93745 | 22961 ft | 492 kts | 4° |
| 2025-09-05 14:25 | 35.85734 | 126.94497 | 22960 ft | 492 kts | 4° |
| 2025-09-05 14:25 | 35.89100 | 126.94868 | 22956 ft | 492 kts | 4° |
| 2025-09-05 14:26 | 35.95926 | 126.95622 | 22955 ft | 492 kts | 4° |
| 2025-09-05 14:26 | 36.02743 | 126.96376 | 22949 ft | 492 kts | 4° |
| 2025-09-05 14:27 | 36.09558 | 126.97131 | 22949 ft | 492 kts | 4° |
| 2025-09-05 14:28 | 36.19759 | 126.98265 | 22945 ft | 490 kts | 4° |
| 2025-09-05 14:28 | 36.26546 | 126.99020 | 22946 ft | 490 kts | 4° |
| 2025-09-05 14:29 | 36.33240 | 126.99767 | 21965 ft | 479 kts | 3° |
| 2025-09-05 14:29 | 36.36491 | 127.00130 | 21342 ft | 460 kts | 3° |
| 2025-09-05 14:29 | 36.42682 | 127.00201 | 19902 ft | 438 kts | 356° |
| 2025-09-05 14:30 | 36.48865 | 126.99989 | 18529 ft | 445 kts | 356° |
| 2025-09-05 14:30 | 36.55025 | 126.99768 | 17195 ft | 440 kts | 356° |
| 2025-09-05 14:31 | 36.61122 | 126.99550 | 16673 ft | 436 kts | 356° |
| 2025-09-05 14:32 | 36.70160 | 126.99227 | 16071 ft | 435 kts | 356° |
| 2025-09-05 14:32 | 36.76136 | 127.00019 | 15674 ft | 435 kts | 12° |
| 2025-09-05 14:33 | 36.82001 | 127.01927 | 15278 ft | 435 kts | 13° |
| 2025-09-05 14:33 | 36.87841 | 127.03897 | 14869 ft | 433 kts | 13° |
| 2025-09-05 14:33 | 36.90745 | 127.04884 | 14670 ft | 432 kts | 13° |
| 2025-09-05 14:34 | 36.96496 | 127.06842 | 14312 ft | 430 kts | 13° |
| 2025-09-05 14:34 | 37.02262 | 127.08808 | 13942 ft | 428 kts | 13° |
| 2025-09-05 14:35 | 37.07804 | 127.10701 | 13557 ft | 389 kts | 13° |
| 2025-09-05 14:36 | 37.14998 | 127.13163 | 13046 ft | 328 kts | 13° |
| 2025-09-05 14:36 | 37.19219 | 127.14609 | 12782 ft | 313 kts | 13° |
| 2025-09-05 14:37 | 37.23410 | 127.16047 | 12514 ft | 311 kts | 13° |
| 2025-09-05 14:37 | 37.25497 | 127.16763 | 12377 ft | 310 kts | 13° |
| 2025-09-05 14:37 | 37.29652 | 127.18188 | 12116 ft | 309 kts | 13° |
| 2025-09-05 14:38 | 37.33799 | 127.18410 | 11673 ft | 296 kts | 336° |
| 2025-09-05 14:38 | 37.36748 | 127.15172 | 11227 ft | 282 kts | 294° |
| 2025-09-05 14:39 | 37.37964 | 127.10567 | 10764 ft | 279 kts | 283° |
| 2025-09-05 14:40 | 37.39386 | 127.03501 | 10024 ft | 276 kts | 281° |
| 2025-09-05 14:40 | 37.40268 | 126.98797 | 9605 ft | 277 kts | 280° |
| 2025-09-05 14:40 | 37.40701 | 126.96447 | 9343 ft | 276 kts | 280° |
| 2025-09-05 14:41 | 37.41686 | 126.91810 | 8870 ft | 275 kts | 290° |
| 2025-09-05 14:41 | 37.43238 | 126.87478 | 8508 ft | 272 kts | 291° |
| 2025-09-05 14:42 | 37.44772 | 126.83136 | 8145 ft | 271 kts | 290° |
| 2025-09-05 14:42 | 37.46194 | 126.78765 | 7864 ft | 270 kts | 286° |
| 2025-09-05 14:43 | 37.47445 | 126.74317 | 7377 ft | 267 kts | 286° |
| 2025-09-05 14:44 | 37.48946 | 126.67728 | 6789 ft | 261 kts | 274° |
| 2025-09-05 14:44 | 37.49436 | 126.63190 | 6295 ft | 262 kts | 275° |
| 2025-09-05 14:44 | 37.49712 | 126.60926 | 6037 ft | 262 kts | 281° |
| 2025-09-05 14:45 | 37.53042 | 126.55674 | 5219 ft | 245 kts | 310° |
| 2025-09-05 14:45 | 37.53830 | 126.54671 | 5077 ft | 243 kts | 310° |
| 2025-09-05 14:46 | 37.57219 | 126.52621 | 4447 ft | 240 kts | 6° |
| 2025-09-05 14:47 | 37.61178 | 126.56151 | 3950 ft | 226 kts | 44° |
| 2025-09-05 14:47 | 37.61934 | 126.57076 | 3806 ft | 221 kts | 45° |
| 2025-09-05 14:48 | 37.65543 | 126.61558 | 2866 ft | 213 kts | 49° |
| 2025-09-05 14:48 | 37.66213 | 126.64292 | 2536 ft | 194 kts | 108° |
| 2025-09-05 14:48 | 37.65500 | 126.66325 | 2378 ft | 191 kts | 127° |
| 2025-09-05 14:49 | 37.63234 | 126.69460 | 1812 ft | 172 kts | 140° |
| 2025-09-05 14:49 | 37.62431 | 126.70472 | 1596 ft | 157 kts | 139° |
| 2025-09-05 14:50 | 37.60919 | 126.72381 | 1243 ft | 152 kts | 139° |
| 2025-09-05 14:50 | 37.59182 | 126.74582 | 736 ft | 152 kts | 136° |
| 2025-09-05 14:51 | 37.57895 | 126.76196 | 365 ft | 158 kts | 136° |
| 2025-09-05 14:52 | 37.55953 | 126.78655 | 61 ft | 61 kts | 135° |
| 2025-09-05 14:52 | 37.55879 | 126.78885 | 62 ft | 21 kts | 44° |
| 2025-09-05 14:52 | 37.55984 | 126.79016 | 62 ft | 17 kts | 45° |
| 2025-09-05 14:53 | 37.55968 | 126.79335 | 68 ft | 21 kts | 109° |
| 2025-09-05 14:53 | 37.55978 | 126.79498 | 66 ft | 1 kts | 89° |
| 2025-09-05 14:54 | 37.55929 | 126.79677 | 69 ft | 14 kts | 98° |
| 2025-09-05 14:54 | 37.55890 | 126.79954 | 65 ft | 11 kts | 115° |
| 2025-09-05 14:55 | 37.55838 | 126.80100 | 65 ft | 10 kts | 51° |
| 2025-09-05 14:56 | 37.55889 | 126.80158 | 66 ft | 0 kts | 46° |